sensor_id;sensor_type;location;lat;lon;timestamp;temperature;humidity
6863;DHT22;3470;48.738;9.616;2023-03-24T11:03:06;15.00;99.90
6863;DHT22;3470;48.738;9.616;2023-03-24T11:05:35;15.10;99.90
6863;DHT22;3470;48.738;9.616;2023-03-24T11:08:25;15.20;99.90
6863;DHT22;3470;48.738;9.616;2023-03-24T11:10:53;15.20;99.90
6863;DHT22;3470;48.738;9.616;2023-03-24T11:13:27;15.10;99.90
6863;DHT22;3470;48.738;9.616;2023-03-24T11:16:10;15.20;99.90
6863;DHT22;3470;48.738;9.616;2023-03-24T11:19:00;15.10;99.90
6863;DHT22;3470;48.738;9.616;2023-03-24T11:21:31;15.30;99.90
6863;DHT22;3470;48.738;9.616;2023-03-24T11:23:58;15.20;99.90
6863;DHT22;3470;48.738;9.616;2023-03-24T11:26:34;15.00;99.90
6863;DHT22;3470;48.738;9.616;2023-03-24T11:29:15;15.20;99.90
6863;DHT22;3470;48.738;9.616;2023-03-24T11:31:50;15.30;99.90
6863;DHT22;3470;48.738;9.616;2023-03-24T11:34:20;15.40;99.90
6863;DHT22;3470;48.738;9.616;2023-03-24T11:36:55;15.30;99.90
6863;DHT22;3470;48.738;9.616;2023-03-24T11:39:29;15.10;99.90
6863;DHT22;3470;48.738;9.616;2023-03-24T11:42:19;15.20;99.90
6863;DHT22;3470;48.738;9.616;2023-03-24T11:44:50;15.30;99.90
6863;DHT22;3470;48.738;9.616;2023-03-24T11:47:33;15.60;99.90
6863;DHT22;3470;48.738;9.616;2023-03-24T11:53:10;15.90;99.90
6863;DHT22;3470;48.738;9.616;2023-03-24T11:55:36;16.10;99.90
6863;DHT22;3470;48.738;9.616;2023-03-24T11:58:30;16.00;99.90
6863;DHT22;3470;48.738;9.616;2023-03-24T12:20:43;15.20;99.90
6863;DHT22;3470;48.738;9.616;2023-03-24T12:23:20;15.00;99.90
6863;DHT22;3470;48.738;9.616;2023-03-24T12:26:22;14.90;99.90
6863;DHT22;3470;48.738;9.616;2023-03-24T12:37:15;15.10;99.90
6863;DHT22;3470;48.738;9.616;2023-03-24T12:42:43;15.00;99.90
6863;DHT22;3470;48.738;9.616;2023-03-24T12:45:38;15.00;99.90
6863;DHT22;3470;48.738;9.616;2023-03-24T12:56:13;14.70;99.90
6863;DHT22;3470;48.738;9.616;2023-03-24T12:58:48;14.70;99.80
6863;DHT22;3470;48.738;9.616;2023-03-24T13:01:43;14.70;99.90
6863;DHT22;3470;48.738;9.616;2023-03-24T13:04:17;14.50;99.90
6863;DHT22;3470;48.738;9.616;2023-03-24T13:12:29;14.60;99.90
6863;DHT22;3470;48.738;9.616;2023-03-24T13:17:53;14.50;99.90
6863;DHT22;3470;48.738;9.616;2023-03-24T13:22:58;14.40;99.90
6863;DHT22;3470;48.738;9.616;2023-03-24T13:25:31;14.50;99.90
6863;DHT22;3470;48.738;9.616;2023-03-24T18:08:25;10.10;99.90
6863;DHT22;3470;48.738;9.616;2023-03-24T18:11:02;10.00;99.90
6863;DHT22;3470;48.738;9.616;2023-03-24T18:13:27;9.90;99.90
6863;DHT22;3470;48.738;9.616;2023-03-24T18:15:53;9.90;99.90
6863;DHT22;3470;48.738;9.616;2023-03-24T18:18:19;9.90;99.90
6863;DHT22;3470;48.738;9.616;2023-03-24T18:20:45;9.80;99.90
6863;DHT22;3470;48.738;9.616;2023-03-24T18:23:10;9.80;99.90
6863;DHT22;3470;48.738;9.616;2023-03-24T18:25:36;9.90;99.90
6863;DHT22;3470;48.738;9.616;2023-03-24T18:28:02;9.80;99.90
6863;DHT22;3470;48.738;9.616;2023-03-24T18:30:27;10.00;99.90
6863;DHT22;3470;48.738;9.616;2023-03-24T18:32:55;10.00;99.90
6863;DHT22;3470;48.738;9.616;2023-03-24T18:35:20;10.00;99.90
6863;DHT22;3470;48.738;9.616;2023-03-24T18:37:46;10.00;99.90
6863;DHT22;3470;48.738;9.616;2023-03-24T18:40:12;9.90;99.90
6863;DHT22;3470;48.738;9.616;2023-03-24T18:42:39;9.90;99.90
6863;DHT22;3470;48.738;9.616;2023-03-24T18:45:06;9.90;99.90
6863;DHT22;3470;48.738;9.616;2023-03-24T18:47:32;10.00;99.90
6863;DHT22;3470;48.738;9.616;2023-03-24T18:49:58;9.90;99.90
6863;DHT22;3470;48.738;9.616;2023-03-24T18:52:24;9.90;99.90
6863;DHT22;3470;48.738;9.616;2023-03-24T18:54:49;10.00;99.90
6863;DHT22;3470;48.738;9.616;2023-03-24T18:57:15;10.00;99.90
6863;DHT22;3470;48.738;9.616;2023-03-24T18:59:41;10.00;99.90
6863;DHT22;3470;48.738;9.616;2023-03-24T19:02:08;9.90;99.90
6863;DHT22;3470;48.738;9.616;2023-03-24T19:04:34;9.90;99.90
6863;DHT22;3470;48.738;9.616;2023-03-24T19:07:00;9.90;99.90
6863;DHT22;3470;48.738;9.616;2023-03-24T19:09:25;9.80;99.90
6863;DHT22;3470;48.738;9.616;2023-03-24T19:11:51;9.90;99.90
6863;DHT22;3470;48.738;9.616;2023-03-24T19:14:16;9.90;99.90
6863;DHT22;3470;48.738;9.616;2023-03-24T19:16:42;9.90;99.90
6863;DHT22;3470;48.738;9.616;2023-03-24T19:19:07;9.80;99.90
6863;DHT22;3470;48.738;9.616;2023-03-24T19:21:34;9.80;99.90
6863;DHT22;3470;48.738;9.616;2023-03-24T19:24:00;9.80;99.90
6863;DHT22;3470;48.738;9.616;2023-03-24T19:26:25;9.80;99.90
6863;DHT22;3470;48.738;9.616;2023-03-24T19:28:51;9.80;99.90
6863;DHT22;3470;48.738;9.616;2023-03-24T19:31:18;9.80;99.90
6863;DHT22;3470;48.738;9.616;2023-03-24T19:33:45;9.90;99.90
6863;DHT22;3470;48.738;9.616;2023-03-24T19:36:11;9.90;99.90
6863;DHT22;3470;48.738;9.616;2023-03-24T19:38:37;9.90;99.90
6863;DHT22;3470;48.738;9.616;2023-03-24T19:41:05;9.90;99.90
6863;DHT22;3470;48.738;9.616;2023-03-24T19:43:31;9.90;99.90
6863;DHT22;3470;48.738;9.616;2023-03-24T19:45:58;9.80;99.90
6863;DHT22;3470;48.738;9.616;2023-03-24T19:48:24;9.80;99.90
6863;DHT22;3470;48.738;9.616;2023-03-24T19:50:52;9.80;99.90
6863;DHT22;3470;48.738;9.616;2023-03-24T19:53:19;9.80;99.90
6863;DHT22;3470;48.738;9.616;2023-03-24T19:55:44;9.80;99.90
6863;DHT22;3470;48.738;9.616;2023-03-24T19:58:11;9.70;99.90
6863;DHT22;3470;48.738;9.616;2023-03-24T20:00:36;9.70;99.90
6863;DHT22;3470;48.738;9.616;2023-03-24T20:03:02;9.60;99.90
6863;DHT22;3470;48.738;9.616;2023-03-24T20:05:28;9.70;99.90
6863;DHT22;3470;48.738;9.616;2023-03-24T20:07:53;9.60;99.90
6863;DHT22;3470;48.738;9.616;2023-03-24T20:10:21;9.70;99.90
6863;DHT22;3470;48.738;9.616;2023-03-24T20:12:47;9.70;99.90
6863;DHT22;3470;48.738;9.616;2023-03-24T20:15:12;9.50;99.90
6863;DHT22;3470;48.738;9.616;2023-03-24T20:17:39;9.40;99.90
6863;DHT22;3470;48.738;9.616;2023-03-24T20:20:06;9.40;99.90
6863;DHT22;3470;48.738;9.616;2023-03-24T20:22:35;9.40;99.90
6863;DHT22;3470;48.738;9.616;2023-03-24T20:25:01;9.40;99.90
6863;DHT22;3470;48.738;9.616;2023-03-24T20:27:27;9.50;99.90
6863;DHT22;3470;48.738;9.616;2023-03-24T20:29:52;9.40;99.90
6863;DHT22;3470;48.738;9.616;2023-03-24T20:32:18;9.40;99.90
6863;DHT22;3470;48.738;9.616;2023-03-24T20:34:43;9.40;99.90
6863;DHT22;3470;48.738;9.616;2023-03-24T20:37:09;9.30;99.90
6863;DHT22;3470;48.738;9.616;2023-03-24T20:39:35;9.20;99.90
6863;DHT22;3470;48.738;9.616;2023-03-24T20:42:01;9.30;99.90
6863;DHT22;3470;48.738;9.616;2023-03-24T20:44:27;9.30;99.90
6863;DHT22;3470;48.738;9.616;2023-03-24T20:46:52;9.30;99.90
6863;DHT22;3470;48.738;9.616;2023-03-24T20:49:21;9.20;99.90
6863;DHT22;3470;48.738;9.616;2023-03-24T20:51:48;9.20;99.90
6863;DHT22;3470;48.738;9.616;2023-03-24T20:54:14;9.30;99.90
6863;DHT22;3470;48.738;9.616;2023-03-24T20:56:39;9.30;99.90
6863;DHT22;3470;48.738;9.616;2023-03-24T20:59:05;9.30;99.90
6863;DHT22;3470;48.738;9.616;2023-03-24T21:01:32;9.30;99.90
6863;DHT22;3470;48.738;9.616;2023-03-24T21:04:02;9.20;99.90
6863;DHT22;3470;48.738;9.616;2023-03-24T21:06:29;9.30;99.90
6863;DHT22;3470;48.738;9.616;2023-03-24T21:08:54;9.30;99.90
6863;DHT22;3470;48.738;9.616;2023-03-24T21:11:22;9.30;99.90
6863;DHT22;3470;48.738;9.616;2023-03-24T21:13:48;9.20;99.90
6863;DHT22;3470;48.738;9.616;2023-03-24T21:16:14;9.20;99.90
6863;DHT22;3470;48.738;9.616;2023-03-24T21:18:44;9.20;99.90
6863;DHT22;3470;48.738;9.616;2023-03-24T21:21:10;9.20;99.90
6863;DHT22;3470;48.738;9.616;2023-03-24T21:23:37;9.30;99.90
6863;DHT22;3470;48.738;9.616;2023-03-24T21:26:10;9.20;99.90
6863;DHT22;3470;48.738;9.616;2023-03-24T21:28:36;9.20;99.90
6863;DHT22;3470;48.738;9.616;2023-03-24T21:31:20;9.20;99.90
6863;DHT22;3470;48.738;9.616;2023-03-24T21:33:47;9.20;99.90
6863;DHT22;3470;48.738;9.616;2023-03-24T21:36:13;9.30;99.90
6863;DHT22;3470;48.738;9.616;2023-03-24T21:38:39;9.20;99.90
6863;DHT22;3470;48.738;9.616;2023-03-24T21:41:05;9.20;99.90
6863;DHT22;3470;48.738;9.616;2023-03-24T21:43:31;9.20;99.90
6863;DHT22;3470;48.738;9.616;2023-03-24T21:45:57;9.20;99.90
6863;DHT22;3470;48.738;9.616;2023-03-24T21:48:23;9.10;99.90
6863;DHT22;3470;48.738;9.616;2023-03-24T21:50:52;9.20;99.90
6863;DHT22;3470;48.738;9.616;2023-03-24T21:53:18;9.10;99.90
6863;DHT22;3470;48.738;9.616;2023-03-24T21:55:51;9.10;99.90
6863;DHT22;3470;48.738;9.616;2023-03-24T21:58:18;9.10;99.90
6863;DHT22;3470;48.738;9.616;2023-03-24T22:00:44;9.10;99.90
6863;DHT22;3470;48.738;9.616;2023-03-24T22:03:10;9.10;99.90
6863;DHT22;3470;48.738;9.616;2023-03-24T22:05:37;9.10;99.90
6863;DHT22;3470;48.738;9.616;2023-03-24T22:08:03;9.10;99.90
6863;DHT22;3470;48.738;9.616;2023-03-24T22:10:31;9.20;99.90
6863;DHT22;3470;48.738;9.616;2023-03-24T22:13:00;9.30;99.90
6863;DHT22;3470;48.738;9.616;2023-03-24T22:15:27;9.10;99.90
6863;DHT22;3470;48.738;9.616;2023-03-24T22:17:53;9.00;99.90
6863;DHT22;3470;48.738;9.616;2023-03-24T22:20:19;9.10;99.90
6863;DHT22;3470;48.738;9.616;2023-03-24T22:22:45;9.10;99.90
6863;DHT22;3470;48.738;9.616;2023-03-24T22:25:13;9.30;99.90
6863;DHT22;3470;48.738;9.616;2023-03-24T22:27:39;9.30;99.90
6863;DHT22;3470;48.738;9.616;2023-03-24T22:30:06;9.40;99.90
6863;DHT22;3470;48.738;9.616;2023-03-24T22:32:32;9.40;99.90
6863;DHT22;3470;48.738;9.616;2023-03-24T22:34:58;9.40;99.90
6863;DHT22;3470;48.738;9.616;2023-03-24T22:37:26;9.50;99.90
6863;DHT22;3470;48.738;9.616;2023-03-24T22:39:52;9.50;99.90
6863;DHT22;3470;48.738;9.616;2023-03-24T22:42:17;9.50;99.90
6863;DHT22;3470;48.738;9.616;2023-03-24T22:44:43;9.50;99.90
6863;DHT22;3470;48.738;9.616;2023-03-24T22:47:08;9.50;99.90
6863;DHT22;3470;48.738;9.616;2023-03-24T22:49:34;9.50;99.90
6863;DHT22;3470;48.738;9.616;2023-03-24T22:52:01;9.50;99.90
6863;DHT22;3470;48.738;9.616;2023-03-24T22:54:27;9.50;99.90
6863;DHT22;3470;48.738;9.616;2023-03-24T22:56:52;9.60;99.90
6863;DHT22;3470;48.738;9.616;2023-03-24T22:59:18;9.60;99.90
6863;DHT22;3470;48.738;9.616;2023-03-24T23:01:44;9.60;99.90
6863;DHT22;3470;48.738;9.616;2023-03-24T23:04:10;9.60;99.90
6863;DHT22;3470;48.738;9.616;2023-03-24T23:06:35;9.60;99.90
6863;DHT22;3470;48.738;9.616;2023-03-24T23:09:02;9.60;99.90
6863;DHT22;3470;48.738;9.616;2023-03-24T23:11:29;9.60;99.90
6863;DHT22;3470;48.738;9.616;2023-03-24T23:13:58;9.40;99.90
6863;DHT22;3470;48.738;9.616;2023-03-24T23:16:33;9.20;99.90
6863;DHT22;3470;48.738;9.616;2023-03-24T23:18:59;8.10;99.90
6863;DHT22;3470;48.738;9.616;2023-03-24T23:21:25;7.80;99.90
6863;DHT22;3470;48.738;9.616;2023-03-24T23:23:51;7.80;99.90
6863;DHT22;3470;48.738;9.616;2023-03-24T23:26:17;7.80;99.90
6863;DHT22;3470;48.738;9.616;2023-03-24T23:28:43;8.10;99.90
6863;DHT22;3470;48.738;9.616;2023-03-24T23:31:15;8.10;99.90
6863;DHT22;3470;48.738;9.616;2023-03-24T23:33:45;8.20;99.90
6863;DHT22;3470;48.738;9.616;2023-03-24T23:36:12;8.00;99.90
6863;DHT22;3470;48.738;9.616;2023-03-24T23:38:45;8.10;99.90
6863;DHT22;3470;48.738;9.616;2023-03-24T23:41:13;8.10;99.90
6863;DHT22;3470;48.738;9.616;2023-03-24T23:43:39;8.00;99.90
6863;DHT22;3470;48.738;9.616;2023-03-24T23:46:05;8.10;99.90
6863;DHT22;3470;48.738;9.616;2023-03-24T23:48:31;8.10;99.90
6863;DHT22;3470;48.738;9.616;2023-03-24T23:50:58;8.10;99.90
6863;DHT22;3470;48.738;9.616;2023-03-24T23:53:25;8.10;99.90
6863;DHT22;3470;48.738;9.616;2023-03-24T23:55:55;8.10;99.90
6863;DHT22;3470;48.738;9.616;2023-03-24T23:58:22;8.10;99.90
